Time;durP1;ratioP1;P1;durP2;ratioP2;P2;SDS_P1;SDS_P2;PMS_P1;PMS_P2;Temp;Humidity;BMP_temperature;BMP_pressure;BME280_temperature;BME280_humidity;BME280_pressure;Samples;Min_cycle;Max_cycle;Signal;HPM_P1;HPM_P2
2023/09/28 00:02:38;;;;;;;5.90;5.20;;;;;;;-144.30;70.76;84657.00;5052770;28;20198;-65
2023/09/28 00:05:05;;;;;;;8.65;5.70;;;;;;;-144.30;70.54;84919.34;5052528;28;20296;-65
2023/09/28 00:07:32;;;;;;;5.25;4.75;;;;;;;-144.30;70.76;84953.16;5052416;28;20202;-65
2023/09/28 00:09:58;;;;;;;5.68;4.65;;;;;;;-144.30;70.71;84965.06;5052341;28;20232;-65
2023/09/28 00:12:25;;;;;;;8.52;5.47;;;;;;;-144.30;70.47;84990.91;5052333;28;20239;-66
2023/09/28 00:14:53;;;;;;;14.90;6.80;;;;;;;-144.30;70.92;84984.97;5052238;28;20659;-65
2023/09/28 00:17:39;;;;;;;10.77;5.22;;;;;;;-144.30;71.09;84994.91;5050940;28;20625;-65
2023/09/28 00:20:13;;;;;;;8.70;5.70;;;;;;;-144.30;70.94;84975.00;5052348;28;20288;-66
2023/09/28 00:22:39;;;;;;;9.15;5.93;;;;;;;-144.30;70.55;84967.06;5052263;28;20196;-66
2023/09/28 00:25:09;;;;;;;6.28;5.63;;;;;;;-144.30;70.50;85002.84;5052234;28;20200;-65
2023/09/28 00:28:13;;;;;;;11.13;7.13;;;;;;;-144.30;70.77;84990.91;5052224;28;20207;-66
2023/09/28 00:30:39;;;;;;;11.18;6.63;;;;;;;-144.30;70.68;84951.16;5052014;28;20290;-66
2023/09/28 00:33:06;;;;;;;16.15;6.65;;;;;;;-144.30;70.89;84939.25;5052069;28;20307;-65
2023/09/28 00:35:53;;;;;;;17.00;7.00;;;;;;;-144.30;71.44;84953.16;5051888;28;20196;-65
2023/09/28 00:38:18;;;;;;;7.85;6.43;;;;;;;-144.30;70.94;84945.19;5051707;28;20203;-67
2023/09/28 00:40:45;;;;;;;10.98;6.97;;;;;;;-144.30;70.82;84941.22;5051741;28;20287;-66
2023/09/28 00:43:11;;;;;;;11.38;6.47;;;;;;;-144.30;71.03;84980.97;5051880;28;20275;-59
2023/09/28 00:45:39;;;;;;;9.73;5.80;;;;;;;-144.30;70.98;84990.91;5052045;28;20212;-59
2023/09/28 00:51:11;;;;;;;14.30;5.82;;;;;;;-144.30;71.40;84975.00;5052099;28;20609;-59
2023/09/28 00:53:37;;;;;;;10.77;5.63;;;;;;;-144.30;71.35;85006.81;5051812;28;20798;-58
2023/09/28 00:56:07;;;;;;;10.20;5.80;;;;;;;-144.30;70.94;85006.81;5051591;28;20277;-65
2023/09/28 00:58:37;;;;;;;15.63;6.45;;;;;;;-144.30;71.40;85048.56;5051596;28;20201;-65
2023/09/28 01:01:06;;;;;;;14.63;5.80;;;;;;;-144.30;71.76;85062.47;5051336;28;20254;-65
2023/09/28 01:03:34;;;;;;;5.70;5.13;;;;;;;-144.30;72.38;85054.53;5051402;28;20216;-65
2023/09/28 01:06:05;;;;;;;9.50;5.72;;;;;;;-144.30;72.66;85062.47;5051411;28;20201;-66
2023/09/28 01:08:32;;;;;;;10.27;6.10;;;;;;;-144.30;73.01;85062.47;5051392;28;20672;-66
2023/09/28 01:11:20;;;;;;;10.18;5.68;;;;;;;-144.30;73.36;85074.41;5051012;28;20279;-65
2023/09/28 01:13:46;;;;;;;9.13;6.13;;;;;;;-144.30;73.44;85106.22;5050972;28;20281;-65
2023/09/28 01:16:31;;;;;;;14.63;6.30;;;;;;;-144.30;73.37;85064.47;5051120;28;20208;-65
2023/09/28 01:22:02;;;;;;;9.07;5.68;;;;;;;-144.30;72.61;85157.88;5051323;28;20192;-66
2023/09/28 01:24:29;;;;;;;7.85;5.90;;;;;;;-144.30;72.37;85122.09;5051018;28;20228;-65
2023/09/28 01:26:57;;;;;;;8.38;5.90;;;;;;;-144.30;72.41;85149.94;5050857;28;20201;-65
2023/09/28 01:29:23;;;;;;;8.93;5.70;;;;;;;-144.30;72.69;85120.13;5050790;28;20197;-59
2023/09/28 01:32:08;;;;;;;13.48;6.10;;;;;;;-144.30;72.74;85138.00;5050793;28;20205;-59
2023/09/28 01:34:34;;;;;;;7.90;6.00;;;;;;;-144.30;72.92;85128.06;5050572;28;20375;-58
2023/09/28 01:39:46;;;;;;;9.60;5.57;;;;;;;-144.30;73.47;85134.03;5050755;28;20275;-58
2023/09/28 01:42:13;;;;;;;6.45;5.75;;;;;;;-144.30;73.48;85122.09;5051054;28;20731;-58
2023/09/28 01:44:40;;;;;;;9.60;5.95;;;;;;;-144.30;73.88;85132.03;5050885;28;20200;-58
2023/09/28 01:47:07;;;;;;;10.20;6.25;;;;;;;-144.30;73.64;85096.25;5050452;28;20200;-58
2023/09/28 01:49:33;;;;;;;6.72;6.03;;;;;;;-144.30;73.35;85078.38;5050862;28;20648;-59
2023/09/28 01:52:00;;;;;;;8.73;6.20;;;;;;;-144.30;72.90;85076.38;5050441;28;20283;-59
2023/09/28 01:54:26;;;;;;;6.82;5.68;;;;;;;-144.30;73.17;85094.28;5050207;28;20231;-66
2023/09/28 01:56:54;;;;;;;8.85;6.55;;;;;;;-144.30;73.17;85074.41;5050311;28;20204;-65
2023/09/28 01:59:21;;;;;;;11.83;6.33;;;;;;;-144.30;73.72;85084.34;5050287;28;20250;-66
2023/09/28 02:01:47;;;;;;;9.52;5.93;;;;;;;-144.30;74.15;85163.84;5050407;28;20232;-65
2023/09/28 02:04:32;;;;;;;11.00;6.22;;;;;;;-144.30;74.65;85149.94;5050515;28;20288;-65
2023/09/28 02:06:58;;;;;;;12.52;5.57;;;;;;;-144.30;74.52;85118.13;5050421;28;20695;-66
2023/09/28 02:09:44;;;;;;;10.70;6.25;;;;;;;-144.30;74.70;85141.97;5050170;28;20283;-66
2023/09/28 02:12:29;;;;;;;9.48;6.43;;;;;;;-144.30;75.01;85141.97;5050270;28;20209;-65
2023/09/28 02:15:15;;;;;;;10.47;5.93;;;;;;;-144.30;74.97;85141.97;5050269;28;20224;-66
2023/09/28 02:17:41;;;;;;;9.00;6.30;;;;;;;-144.30;74.99;85126.09;5050338;28;20227;-66
2023/09/28 02:20:10;;;;;;;8.68;5.97;;;;;;;-144.30;74.81;85163.84;5049882;28;20657;-66
2023/09/28 02:25:23;;;;;;;7.47;5.80;;;;;;;-144.30;75.20;85161.88;5050103;28;20300;-66
2023/09/28 02:27:52;;;;;;;11.98;6.15;;;;;;;-144.30;74.90;85138.00;5050055;28;20299;-66
2023/09/28 02:30:22;;;;;;;9.70;6.23;;;;;;;-144.30;74.83;85128.06;5050156;28;20200;-66
2023/09/28 02:32:49;;;;;;;9.45;6.10;;;;;;;-144.30;74.74;85163.84;5049808;28;20582;-66
2023/09/28 02:35:17;;;;;;;9.63;7.00;;;;;;;-144.30;74.71;84980.97;5050355;28;20200;-66
2023/09/28 02:37:44;;;;;;;11.63;7.43;;;;;;;-144.30;74.53;85070.44;5050211;28;20224;-66
2023/09/28 02:40:31;;;;;;;11.63;6.80;;;;;;;-144.30;74.38;85153.91;5049330;28;20207;-66
2023/09/28 02:42:58;;;;;;;12.23;6.83;;;;;;;-144.30;74.48;85145.97;5049947;28;20243;-66
2023/09/28 02:45:25;;;;;;;8.45;6.25;;;;;;;-144.30;74.25;85122.09;5049707;28;20204;-59
2023/09/28 02:47:51;;;;;;;8.48;6.32;;;;;;;-144.30;74.33;85138.00;5049971;28;20682;-58
2023/09/28 02:50:18;;;;;;;11.83;5.60;;;;;;;-144.30;73.90;85151.94;5049920;28;20279;-59
2023/09/28 02:52:46;;;;;;;6.65;6.10;;;;;;;-144.30;73.82;85134.03;5049933;28;20909;-58
2023/09/28 02:55:14;;;;;;;11.25;5.60;;;;;;;-144.30;73.70;85114.16;5049694;28;20274;-58
2023/09/28 02:57:41;;;;;;;13.20;6.20;;;;;;;-144.30;73.17;85090.31;5049814;28;20232;-58
2023/09/28 03:00:25;;;;;;;5.82;5.22;;;;;;;-144.30;73.01;85134.03;5047328;28;20686;-58
2023/09/28 03:02:53;;;;;;;5.60;5.05;;;;;;;-144.30;72.29;85040.59;5049441;28;20200;-58
2023/09/28 03:05:21;;;;;;;10.35;5.43;;;;;;;-144.30;72.40;85126.09;5049720;28;20616;-58
2023/09/28 03:07:47;;;;;;;12.10;5.75;;;;;;;-144.30;72.08;85070.44;5049599;28;20193;-59
2023/09/28 03:12:59;;;;;;;11.10;5.90;;;;;;;-144.30;71.20;85086.31;5040119;28;20204;-59
2023/09/28 03:15:27;;;;;;;9.65;5.20;;;;;;;-144.30;71.19;85068.44;5039416;28;20200;-59
2023/09/28 03:17:55;;;;;;;8.13;5.85;;;;;;;-144.30;71.03;85092.28;5038074;28;20190;-59
2023/09/28 03:20:44;;;;;;;13.82;6.35;;;;;;;-144.30;70.84;85060.50;5039142;28;20229;-59
2023/09/28 03:23:13;;;;;;;14.07;5.47;;;;;;;-144.30;70.75;85006.81;5039984;28;20201;-59
2023/09/28 03:28:27;;;;;;;8.63;5.47;;;;;;;-144.30;70.35;85066.44;5049573;28;20250;-66
2023/09/28 03:30:54;;;;;;;12.10;5.47;;;;;;;-144.30;70.07;85038.63;5043173;28;20197;-60
2023/09/28 03:33:21;;;;;;;11.93;5.57;;;;;;;-144.30;70.05;85066.44;5039522;28;20225;-59
2023/09/28 03:35:47;;;;;;;7.32;5.55;;;;;;;-144.30;69.77;85054.53;5038644;28;20259;-59
2023/09/28 03:38:15;;;;;;;10.80;6.53;;;;;;;-144.30;69.46;85030.66;5049415;28;20208;-60
2023/09/28 03:41:00;;;;;;;13.10;6.50;;;;;;;-144.30;68.96;85014.78;5049570;28;20284;-58
2023/09/28 03:46:12;;;;;;;9.00;5.10;;;;;;;-144.30;68.91;85030.66;5049263;28;20700;-59
2023/09/28 03:48:39;;;;;;;15.68;5.72;;;;;;;-144.30;68.94;85046.56;5049560;28;20211;-60
2023/09/28 03:51:06;;;;;;;7.65;6.30;;;;;;;-144.30;68.90;85036.63;5049671;28;20203;-60
2023/09/28 03:53:39;;;;;;;10.40;7.38;;;;;;;-144.30;68.75;85026.69;5047885;28;20232;-60
2023/09/28 03:56:06;;;;;;;26.23;16.30;;;;;;;-144.30;68.52;85030.66;5041686;28;20189;-61
2023/09/28 03:58:33;;;;;;;13.63;9.38;;;;;;;-144.30;68.20;85032.66;5041744;28;20195;-60
2023/09/28 04:01:03;;;;;;;19.67;13.23;;;;;;;-144.30;68.04;85060.50;5043793;28;20197;-60
2023/09/28 04:03:31;;;;;;;12.15;8.98;;;;;;;-144.30;68.67;84746.44;5042457;28;20193;-67
2023/09/28 04:08:42;;;;;;;21.55;12.98;;;;;;;-144.30;68.92;85004.84;5046757;28;20671;-65
2023/09/28 04:11:09;;;;;;;12.82;8.57;;;;;;;-144.30;68.81;84971.03;5040344;28;20236;-65
2023/09/28 04:13:36;;;;;;;9.07;6.57;;;;;;;-144.30;68.67;85034.66;5052265;28;20220;-65
2023/09/28 04:16:03;;;;;;;10.63;6.80;;;;;;;-144.30;68.82;85038.63;5052257;28;20192;-65
2023/09/28 04:18:50;;;;;;;13.35;7.70;;;;;;;-144.30;69.27;85024.72;5052415;28;20201;-65
2023/09/28 04:21:17;;;;;;;22.17;13.27;;;;;;;-144.30;69.58;85006.81;5051765;28;20372;-64
2023/09/28 04:23:43;;;;;;;16.48;7.93;;;;;;;-144.30;69.46;85026.69;5051951;28;20588;-64
2023/09/28 04:26:29;;;;;;;18.67;9.10;;;;;;;-144.30;69.51;85046.56;5052064;28;20203;-67
2023/09/28 04:28:56;;;;;;;17.67;9.88;;;;;;;-144.30;69.39;85042.59;5052295;28;20200;-65
2023/09/28 04:31:22;;;;;;;26.15;16.25;;;;;;;-144.30;69.32;85058.50;5054468;28;20214;-64
2023/09/28 04:33:51;;;;;;;28.20;19.33;;;;;;;-144.30;68.81;85018.75;5051867;28;20604;-63
2023/09/28 04:36:38;;;;;;;21.92;13.52;;;;;;;-144.30;68.30;84982.97;5051610;28;20298;-67
2023/09/28 04:42:26;;;;;;;11.73;6.95;;;;;;;-144.30;67.76;85038.63;5050171;28;20245;-66
2023/09/28 04:44:53;;;;;;;13.30;6.60;;;;;;;-144.30;67.84;84984.97;5046064;28;20203;-67
2023/09/28 04:47:20;;;;;;;13.90;6.93;;;;;;;-144.30;67.73;85036.63;5048898;28;20223;-66
2023/09/28 04:49:49;;;;;;;11.23;7.13;;;;;;;-144.30;67.84;85030.66;5050111;28;20192;-66
2023/09/28 04:52:17;;;;;;;18.05;6.00;;;;;;;-144.30;67.92;85002.84;5049324;28;20334;-67
2023/09/28 04:54:44;;;;;;;11.98;6.47;;;;;;;-144.30;67.99;85022.72;5050298;28;20236;-67
2023/09/28 04:57:11;;;;;;;7.22;5.55;;;;;;;-144.30;68.04;85010.78;5050695;28;20242;-67
2023/09/28 04:59:39;;;;;;;14.13;8.80;;;;;;;-144.30;67.62;85024.72;5050893;28;20683;-59
2023/09/28 05:02:06;;;;;;;15.77;6.43;;;;;;;-144.30;67.50;84992.91;5050468;28;20691;-59
2023/09/28 05:07:18;;;;;;;10.27;5.93;;;;;;;-144.30;67.72;85040.59;5050878;28;20207;-59
2023/09/28 05:09:45;;;;;;;11.65;7.30;;;;;;;-144.30;67.53;84982.97;5050888;28;20672;-59
2023/09/28 05:12:12;;;;;;;15.25;7.18;;;;;;;-144.30;67.17;85000.84;5050615;28;20200;-59
2023/09/28 05:14:41;;;;;;;23.65;8.13;;;;;;;-144.30;66.91;84967.06;5050523;28;20582;-58
2023/09/28 05:19:52;;;;;;;17.58;12.60;;;;;;;-144.30;67.55;85020.72;5050469;28;20338;-59
2023/09/28 05:22:20;;;;;;;18.40;6.82;;;;;;;-144.30;67.42;85012.78;5049363;28;20213;-59
2023/09/28 05:25:06;;;;;;;11.20;6.47;;;;;;;-144.30;67.04;85040.59;5050319;28;20205;-60
2023/09/28 05:27:53;;;;;;;14.48;7.60;;;;;;;-144.30;66.83;84982.97;5050091;28;20229;-66
2023/09/28 05:30:20;;;;;;;18.02;8.07;;;;;;;-144.30;66.95;85000.84;5050103;28;20258;-67
2023/09/28 05:32:46;;;;;;;10.82;9.02;;;;;;;-144.30;67.01;84975.00;5050469;28;20560;-67
2023/09/28 05:35:15;;;;;;;13.75;7.18;;;;;;;-144.30;67.43;85014.78;5049940;28;20252;-67
2023/09/28 05:37:43;;;;;;;10.70;6.07;;;;;;;-144.30;67.05;84973.03;5050437;28;20209;-59
2023/09/28 05:40:11;;;;;;;9.02;6.38;;;;;;;-144.30;66.78;84967.06;5045912;28;20215;-59
2023/09/28 05:42:39;;;;;;;14.88;7.20;;;;;;;-144.30;66.71;84923.34;5049169;28;20205;-60
2023/09/28 05:45:07;;;;;;;11.80;5.88;;;;;;;-144.30;66.61;84971.03;5049719;28;20303;-58
2023/09/28 05:47:35;;;;;;;14.00;6.72;;;;;;;-144.30;66.76;84975.00;5049642;28;20205;-60
2023/09/28 05:50:02;;;;;;;12.43;6.20;;;;;;;-144.30;66.24;84963.09;5049682;28;20215;-60
2023/09/28 05:55:33;;;;;;;23.63;7.53;;;;;;;-144.30;64.81;84927.31;5049607;28;20218;-59
2023/09/28 05:58:00;;;;;;;15.43;6.53;;;;;;;-144.30;63.96;84895.50;5049589;28;20601;-60
2023/09/28 06:00:45;;;;;;;11.27;6.72;;;;;;;-144.30;63.22;84873.66;5049603;28;20204;-59
2023/09/28 06:03:12;;;;;;;13.07;6.45;;;;;;;-144.30;62.84;84990.91;5049518;28;20208;-59
2023/09/28 06:05:57;;;;;;;23.15;7.13;;;;;;;-144.30;62.98;84849.78;5049584;28;20685;-59
2023/09/28 06:08:26;;;;;;;36.72;8.85;;;;;;;-144.30;62.68;84812.03;5049343;28;20198;-59
2023/09/28 06:10:53;;;;;;;33.95;9.82;;;;;;;-144.30;62.71;84863.72;5049338;28;20208;-60
2023/09/28 06:13:19;;;;;;;10.93;5.93;;;;;;;-144.30;62.30;84829.91;5049289;28;20196;-60
2023/09/28 06:15:46;;;;;;;20.95;7.95;;;;;;;-144.30;62.14;84835.88;5048994;28;20220;-59
2023/09/28 06:18:13;;;;;;;20.08;7.05;;;;;;;-144.30;61.54;84810.03;5049326;28;20322;-67
2023/09/28 06:20:41;;;;;;;9.45;5.80;;;;;;;-144.30;61.83;84853.78;5049395;28;20196;-67
2023/09/28 06:23:28;;;;;;;27.80;6.40;;;;;;;-144.30;62.99;84875.63;5049443;28;20196;-64
2023/09/28 06:25:56;;;;;;;15.95;7.53;;;;;;;-144.30;61.97;84819.97;5049290;28;20189;-67
2023/09/28 06:28:24;;;;;;;9.82;6.60;;;;;;;-144.30;61.89;84808.06;5049391;28;20259;-68
2023/09/28 06:30:51;;;;;;;7.10;6.35;;;;;;;-144.30;62.46;84764.31;5049294;28;20204;-68
2023/09/28 06:36:02;;;;;;;13.00;6.60;;;;;;;-144.30;60.31;84716.63;5049450;28;20457;-60
2023/09/28 06:38:31;;;;;;;11.95;6.80;;;;;;;-144.30;60.11;84694.75;5049565;28;20600;-60
2023/09/28 06:40:57;;;;;;;14.57;6.32;;;;;;;-144.30;59.29;84670.91;5049196;28;20219;-61
2023/09/28 06:43:25;;;;;;;14.30;7.43;;;;;;;-144.30;57.48;84573.53;5049531;28;20204;-62
2023/09/28 06:45:52;;;;;;;15.25;6.53;;;;;;;-144.30;58.18;84565.56;5049422;28;20234;-63
2023/09/28 06:48:19;;;;;;;45.63;7.57;;;;;;;-144.30;56.95;84569.53;5049266;28;20202;-61
2023/09/28 06:50:45;;;;;;;30.45;7.40;;;;;;;-144.30;56.94;84605.31;5049181;28;20549;-61
2023/09/28 06:53:13;;;;;;;27.52;7.50;;;;;;;-144.30;59.25;84593.41;5049104;28;20240;-61
2023/09/28 06:55:42;;;;;;;14.30;6.53;;;;;;;-144.30;57.89;84601.34;5049020;28;20267;-61
2023/09/28 06:58:09;;;;;;;14.65;6.38;;;;;;;-144.30;58.04;84653.03;5049330;28;20619;-60
2023/09/28 07:00:36;;;;;;;17.38;9.00;;;;;;;-144.30;58.31;84649.03;5049071;28;20192;-61
2023/09/28 07:06:07;;;;;;;23.35;7.75;;;;;;;-144.30;57.80;84587.44;5049196;28;20266;-62
2023/09/28 07:14:03;;;;;;;18.02;7.57;;;;;;;-144.30;49.87;84044.91;5048982;28;20191;-67
2023/09/28 07:16:49;;;;;;;11.00;6.20;;;;;;;-144.30;44.93;83806.44;5048864;28;20207;-66
2023/09/28 07:24:45;;;;;;;9.68;5.80;;;;;;;-144.30;44.45;83983.28;5048902;28;20196;-66
2023/09/28 07:27:13;;;;;;;9.27;5.32;;;;;;;-144.30;46.18;84108.50;5052949;28;20211;-66
2023/09/28 07:29:40;;;;;;;14.00;5.93;;;;;;;-144.30;47.58;84199.91;5052627;28;20192;-65
2023/09/28 07:32:08;;;;;;;14.07;6.28;;;;;;;-144.30;48.73;84247.59;5052870;28;20287;-62
2023/09/28 07:34:35;;;;;;;20.02;10.40;;;;;;;-144.30;48.98;84259.50;5052887;28;20696;-62
2023/09/28 07:37:21;;;;;;;12.70;6.55;;;;;;;-144.30;48.57;84229.72;5052891;28;20592;-62
2023/09/28 07:39:48;;;;;;;71.47;9.13;;;;;;;-144.30;47.93;84168.09;5052935;28;20209;-62
2023/09/28 07:45:00;;;;;;;32.60;7.82;;;;;;;-144.30;46.54;84094.56;5052651;28;20634;-61
2023/09/28 07:47:31;;;;;;;11.52;7.22;;;;;;;-144.30;46.52;84086.63;5052461;28;20200;-61
2023/09/28 07:50:17;;;;;;;58.70;11.15;;;;;;;-144.30;46.66;84068.75;5048872;28;20205;-62
2023/09/28 07:52:44;;;;;;;16.05;6.45;;;;;;;-144.30;46.17;84172.06;5052101;28;20250;-62
2023/09/28 07:55:13;;;;;;;12.60;5.75;;;;;;;-144.30;46.72;84225.75;5052117;28;20222;-62
2023/09/28 07:57:41;;;;;;;9.23;5.47;;;;;;;-144.30;47.28;84267.47;5051198;28;20235;-63
2023/09/28 08:00:11;;;;;;;9.27;5.35;;;;;;;-144.30;47.90;84305.22;5056653;28;20672;-62
2023/09/28 08:02:38;;;;;;;10.00;5.18;;;;;;;-144.30;48.44;84341.00;5051724;28;20201;-62
2023/09/28 08:05:06;;;;;;;11.52;5.55;;;;;;;-144.30;48.16;84263.50;5051591;28;20258;-62
2023/09/28 08:07:33;;;;;;;14.25;5.32;;;;;;;-144.30;47.51;84215.78;5052039;28;20680;-62
2023/09/28 08:10:00;;;;;;;17.40;4.80;;;;;;;-144.30;47.41;84231.69;5052162;28;20208;-63
2023/09/28 08:12:27;;;;;;;10.85;5.03;;;;;;;-144.30;47.64;84243.63;5051938;28;20205;-61
2023/09/28 08:17:44;;;;;;;10.18;5.47;;;;;;;-144.30;47.60;84271.44;5052154;28;20198;-68
2023/09/28 08:20:11;;;;;;;9.85;6.05;;;;;;;-144.30;47.84;84299.25;5051546;28;20200;-67
2023/09/28 08:22:38;;;;;;;11.18;5.25;;;;;;;-144.30;48.10;84291.31;5051783;28;20207;-67
2023/09/28 08:25:07;;;;;;;12.48;4.72;;;;;;;-144.30;47.98;84315.16;5050533;28;20664;-67
2023/09/28 08:27:34;;;;;;;12.43;5.07;;;;;;;-144.30;47.93;84331.06;5051108;28;20242;-67
2023/09/28 08:30:03;;;;;;;18.17;4.97;;;;;;;-144.30;48.13;84249.59;5051613;28;20211;-68
2023/09/28 08:32:30;;;;;;;16.42;5.30;;;;;;;-144.30;48.66;84350.94;5051611;28;20188;-68
2023/09/28 08:34:57;;;;;;;5.95;4.53;;;;;;;-144.30;49.05;84354.91;5051440;28;20221;-68
2023/09/28 08:37:24;;;;;;;10.13;4.93;;;;;;;-144.30;49.70;84378.75;5050620;28;20292;-68
2023/09/28 08:40:10;;;;;;;12.88;4.93;;;;;;;-144.30;49.85;84354.91;5047575;28;20208;-69
2023/09/28 08:42:43;;;;;;;8.55;4.88;;;;;;;-144.30;48.68;84335.03;5050636;28;20196;-68
2023/09/28 08:45:14;;;;;;;11.55;5.25;;;;;;;-144.30;47.94;84303.25;5051094;28;20205;-66
2023/09/28 08:47:47;;;;;;;9.40;4.35;;;;;;;-144.30;48.20;84255.53;5051337;28;20201;-62
2023/09/28 08:53:05;;;;;;;8.35;4.28;;;;;;;-144.30;47.50;84279.38;5050269;28;20255;-63
2023/09/28 08:55:33;;;;;;;21.25;4.90;;;;;;;-144.30;46.95;84201.88;5051193;28;20220;-63
2023/09/28 08:58:01;;;;;;;13.68;5.50;;;;;;;-144.30;46.51;84170.09;5051261;28;20595;-62
2023/09/28 09:00:30;;;;;;;12.07;4.38;;;;;;;-144.30;46.12;84126.38;5051100;28;20200;-62
2023/09/28 09:02:59;;;;;;;9.48;5.13;;;;;;;-144.30;46.07;84138.28;5051269;28;20590;-62
2023/09/28 09:05:46;;;;;;;10.43;4.53;;;;;;;-144.30;45.88;84156.19;5050975;28;20193;-68
2023/09/28 09:08:15;;;;;;;9.32;4.40;;;;;;;-144.30;45.73;84191.94;5050968;28;20439;-67
2023/09/28 09:10:42;;;;;;;20.00;5.88;;;;;;;-144.30;45.57;84140.28;5051008;28;20283;-68
2023/09/28 09:13:16;;;;;;;48.63;7.18;;;;;;;-144.30;45.37;84164.13;5050488;28;20684;-68
2023/09/28 09:16:03;;;;;;;13.68;5.60;;;;;;;-144.30;45.10;84106.50;5050606;28;20216;-69
2023/09/28 09:18:30;;;;;;;24.75;5.25;;;;;;;-144.30;44.64;84036.94;5050803;28;20662;-63
2023/09/28 09:21:00;;;;;;;29.77;6.70;;;;;;;-144.30;44.64;84060.78;5050534;28;20196;-67
2023/09/28 09:23:28;;;;;;;13.18;5.32;;;;;;;-144.30;44.04;83991.25;5050287;28;20236;-67
2023/09/28 09:31:26;;;;;;;10.68;4.90;;;;;;;-144.30;43.67;83979.31;5050400;28;20214;-67
2023/09/28 09:33:53;;;;;;;12.55;5.00;;;;;;;-144.30;43.39;83993.22;5050115;28;20611;-67
2023/09/28 09:36:20;;;;;;;9.43;4.95;;;;;;;-144.30;43.43;83925.66;5050334;28;20224;-66
2023/09/28 09:38:50;;;;;;;8.00;5.30;;;;;;;-144.30;42.95;83909.78;5042637;28;20197;-68
2023/09/28 09:41:35;;;;;;;5.40;3.85;;;;;;;-144.30;41.67;83885.94;5045313;28;20266;-68
2023/09/28 09:44:05;;;;;;;10.13;4.72;;;;;;;-144.30;41.37;83814.41;5041603;28;20204;-68
2023/09/28 09:46:35;;;;;;;12.98;4.82;;;;;;;-144.30;41.38;83846.19;5048339;28;20736;-67
2023/09/28 09:49:02;;;;;;;12.35;4.60;;;;;;;-144.30;41.62;83885.94;5038287;28;20717;-68
2023/09/28 09:51:48;;;;;;;8.05;4.45;;;;;;;-144.30;41.74;83830.28;5037464;28;20201;-67
2023/09/28 09:54:34;;;;;;;8.80;5.70;;;;;;;-144.30;41.93;83822.34;5038060;28;20229;-67
2023/09/28 09:57:06;;;;;;;7.30;4.53;;;;;;;-144.30;41.89;83792.53;5037367;28;20217;-66
2023/09/28 09:59:34;;;;;;;10.02;5.20;;;;;;;-144.30;41.65;83808.44;5030012;28;20212;-67
2023/09/28 10:04:48;;;;;;;15.18;5.65;;;;;;;-144.30;40.32;83717.03;5033281;28;20302;-67
2023/09/28 10:07:16;;;;;;;7.82;4.80;;;;;;;-144.30;40.51;83770.69;5037885;28;20197;-67
2023/09/28 10:09:44;;;;;;;12.55;5.18;;;;;;;-144.30;40.62;83754.78;5040273;28;20228;-67
2023/09/28 10:12:30;;;;;;;10.18;4.47;;;;;;;-144.30;40.65;83790.56;5039722;28;20194;-68
2023/09/28 10:14:58;;;;;;;8.43;4.50;;;;;;;-144.30;40.36;83780.63;5039989;28;20199;-67
2023/09/28 10:17:45;;;;;;;8.65;3.72;;;;;;;-144.30;41.20;83864.06;5038203;28;20208;-67
2023/09/28 10:22:58;;;;;;;14.15;4.30;;;;;;;-144.30;42.17;83874.00;5038474;28;20211;-67
2023/09/28 10:28:28;;;;;;;11.82;5.50;;;;;;;-144.30;42.56;83899.84;5039346;28;20271;-68
2023/09/28 10:31:25;;;;;;;29.02;19.05;;;;;;;-144.30;42.82;83828.31;5040058;28;20532;-67
2023/09/28 10:34:00;;;;;;;11.45;5.70;;;;;;;-144.30;42.58;83903.81;5038605;28;20250;-63
2023/09/28 10:36:28;;;;;;;8.85;5.60;;;;;;;-144.30;42.25;83842.22;5039004;28;20607;-63
2023/09/28 10:39:11;;;;;;;10.05;5.55;;;;;;;-144.30;41.92;83810.41;5041298;28;20305;-62
2023/09/28 10:41:39;;;;;;;9.95;4.40;;;;;;;-144.30;41.98;83788.56;5039999;28;20242;-66
2023/09/28 10:44:13;;;;;;;16.17;4.20;;;;;;;-144.30;42.55;83901.81;5037179;28;20656;-67
2023/09/28 10:46:41;;;;;;;8.18;4.75;;;;;;;-144.30;42.80;83840.22;5037846;28;20197;-66
2023/09/28 10:49:10;;;;;;;7.40;4.65;;;;;;;-144.30;42.63;83844.19;5038868;28;20207;-67
2023/09/28 10:51:37;;;;;;;9.63;4.00;;;;;;;-144.30;42.84;83824.31;5040007;28;20196;-67
2023/09/28 10:57:26;;;;;;;11.95;4.45;;;;;;;-144.30;42.46;83784.59;5029270;28;20223;-67
2023/09/28 10:59:59;;;;;;;5.72;4.65;;;;;;;-144.30;42.37;83792.53;5029459;28;20201;-67
2023/09/28 11:02:26;;;;;;;8.40;4.70;;;;;;;-144.30;42.45;83838.25;5033657;28;20687;-66
2023/09/28 11:04:54;;;;;;;4.25;3.40;;;;;;;-144.30;42.75;83826.31;5033775;28;20215;-67
2023/09/28 11:07:22;;;;;;;10.63;4.25;;;;;;;-144.30;43.17;83814.41;5033762;28;20197;-67
2023/09/28 11:09:49;;;;;;;10.38;4.13;;;;;;;-144.30;43.21;83826.31;5033871;28;20198;-66
2023/09/28 11:12:16;;;;;;;8.93;5.35;;;;;;;-144.30;43.17;83814.41;5033588;28;20201;-67
2023/09/28 11:15:03;;;;;;;11.95;4.32;;;;;;;-144.30;43.21;83866.06;5033208;28;20193;-62
2023/09/28 11:17:30;;;;;;;7.90;4.13;;;;;;;-144.30;43.47;83814.41;5033258;28;20311;-61
2023/09/28 11:20:19;;;;;;;6.68;4.15;;;;;;;-144.30;43.33;83796.50;5033487;28;20691;-62
2023/09/28 11:22:46;;;;;;;7.03;3.88;;;;;;;-144.30;42.62;83967.41;5041392;28;20318;-62
2023/09/28 11:25:13;;;;;;;6.65;4.20;;;;;;;-144.30;42.92;83758.75;5043383;28;20201;-62
2023/09/28 11:27:59;;;;;;;9.63;4.80;;;;;;;-144.30;42.58;83762.72;5047450;28;20204;-62
2023/09/28 11:30:44;;;;;;;12.35;4.50;;;;;;;-144.30;42.27;83707.09;5044077;28;20201;-63
2023/09/28 11:36:17;;;;;;;10.30;4.50;;;;;;;-144.30;42.20;83732.94;5032942;28;20220;-62
2023/09/28 11:39:03;;;;;;;10.82;4.57;;;;;;;-144.30;41.89;83693.19;5032788;28;20280;-61
2023/09/28 11:44:43;;;;;;;7.60;4.95;;;;;;;-144.30;41.91;83742.88;5032723;28;20200;-63
2023/09/28 11:47:10;;;;;;;8.13;4.15;;;;;;;-144.30;42.38;83766.72;5032437;28;20197;-67
2023/09/28 11:49:55;;;;;;;8.75;4.43;;;;;;;-144.30;42.48;83695.19;5032402;28;20498;-67
2023/09/28 11:52:24;;;;;;;10.48;4.32;;;;;;;-144.30;42.31;83695.19;5032620;28;20236;-66
2023/09/28 11:54:51;;;;;;;4.78;4.38;;;;;;;-144.30;41.82;83655.44;5032273;28;20255;-67
2023/09/28 11:57:18;;;;;;;9.00;4.60;;;;;;;-144.30;42.00;83675.31;5032189;28;20692;-67
2023/09/28 11:59:45;;;;;;;9.50;4.00;;;;;;;-144.30;41.25;83683.25;5032279;28;20205;-63
2023/09/28 12:02:12;;;;;;;8.95;4.25;;;;;;;-144.30;41.54;83723.00;5032406;28;20201;-62
2023/09/28 12:04:39;;;;;;;9.57;4.50;;;;;;;-144.30;42.00;83691.19;5032492;28;20709;-62
2023/09/28 12:07:07;;;;;;;9.68;4.10;;;;;;;-144.30;42.12;83717.03;5032444;28;20223;-62
2023/09/28 12:09:35;;;;;;;5.35;4.18;;;;;;;-144.30;42.25;83726.97;5032157;28;20220;-62
2023/09/28 12:12:02;;;;;;;10.95;4.95;;;;;;;-144.30;42.86;83750.81;5045657;28;20215;-66
2023/09/28 12:14:29;;;;;;;11.30;5.07;;;;;;;-144.30;42.88;83762.72;5051482;28;20694;-65
2023/09/28 12:16:57;;;;;;;10.15;4.65;;;;;;;-144.30;43.12;83752.78;5046049;28;20220;-66
2023/09/28 12:19:24;;;;;;;8.35;4.88;;;;;;;-144.30;43.82;83802.47;5043203;28;20188;-62
2023/09/28 12:22:10;;;;;;;7.45;4.55;;;;;;;-144.30;43.90;83822.34;5043881;28;20291;-62
2023/09/28 12:25:14;;;;;;;11.48;4.57;;;;;;;-144.30;44.00;83852.16;5051630;28;20278;-62
2023/09/28 12:28:02;;;;;;;13.45;5.07;;;;;;;-144.30;44.30;83876.00;5051784;28;20218;-66
2023/09/28 12:30:30;;;;;;;6.53;4.45;;;;;;;-144.30;44.51;83897.84;5037137;28;20241;-66
2023/09/28 12:32:57;;;;;;;4.63;4.20;;;;;;;-144.30;44.84;83876.00;5041728;28;20605;-67
2023/09/28 12:35:24;;;;;;;10.27;5.60;;;;;;;-144.30;45.03;83852.16;5041395;28;20216;-67
2023/09/28 12:43:21;;;;;;;6.43;4.20;;;;;;;-144.30;45.15;83856.13;5039804;28;20204;-66
2023/09/28 12:46:09;;;;;;;5.35;4.82;;;;;;;-144.30;44.80;83864.06;5039792;28;20600;-67
2023/09/28 12:48:55;;;;;;;6.88;4.10;;;;;;;-144.30;44.70;83794.53;5040870;28;20279;-67
2023/09/28 12:51:22;;;;;;;6.80;4.35;;;;;;;-144.30;44.59;83798.50;5036572;28;20196;-66
2023/09/28 12:54:08;;;;;;;5.22;3.88;;;;;;;-144.30;44.45;83834.25;5031207;28;20712;-67
2023/09/28 12:56:35;;;;;;;7.20;4.85;;;;;;;-144.30;44.16;83784.59;5042065;28;20225;-66
2023/09/28 12:59:03;;;;;;;6.45;4.13;;;;;;;-144.30;44.04;83790.56;5050926;28;20222;-67